Latest Weather Observations for Mildura

IDV60801

Issued at 7:32 pm EST Sunday 20 August 2017 (issued every 30 minutes, with the page automatically refreshed every 10 minutes)

About weather observations | Map of weather stations | Latest weather observations for VIC | Other Formats
Station Details ID: 076031 Name: MILDURA AIRPORT Lat: -34.24 Lon: 142.09 Height: 50.0 m
Data from the previous 72 hours. | See also: Recent months at Mildura
Date/Time
EST
Temp
°C
App
Temp
°C
Dew
Point
°C
Rel
Hum
%
Delta-T
°C
Wind Press
QNH
hPa
Press
MSL
hPa
Rain since
9am
mm
Dir  Spd
km/h
Gust
km/h
Spd
kts
Gust
kts
20/07:30pm 11.6 8.0 0.4 46 4.6 NE 9 11 5 6 1017.8 1017.8 0.2
20/07:00pm 11.7 8.0 -0.1 44 4.8 NE 9 13 5 7 1017.7 1017.7 0.2
20/06:30pm 11.5 7.9 0.9 48 4.4 NNE 9 11 5 6 1018.1 1018.1 0.2
20/06:00pm 12.0 7.9 -0.2 43 5.0 NNE 11 13 6 7 1018.3 1018.3 0.2
20/05:30pm 13.1 7.7 -1.2 37 5.8 NNE 17 20 9 11 1018.2 1018.2 0.2
20/05:00pm 13.5 7.4 -2.4 33 6.3 NNE 20 24 11 13 1018.5 1018.5 0.2
20/04:30pm 14.1 8.2 -2.3 32 6.5 N 19 26 10 14 1019.2 1019.2 0.2
20/04:00pm 14.5 8.4 -2.4 31 6.7 N 20 28 11 15 1019.3 1019.3 0.2
20/03:30pm 14.7 9.2 -2.2 31 6.8 N 17 24 9 13 1020.1 1020.1 0.2
20/03:00pm 15.3 8.6 -1.3 32 6.8 NNE 24 33 13 18 1019.7 1019.7 0.2
20/02:30pm 14.5 8.5 -1.6 33 6.5 NNE 20 28 11 15 1020.5 1020.5 0.2
20/02:00pm 14.1 8.2 -1.1 35 6.2 NE 20 32 11 17 1021.0 1021.0 0.2
20/01:30pm 14.2 8.6 -0.3 37 6.0 NNE 19 32 10 17 1022.0 1022.0 0.2
20/01:00pm 13.9 8.7 -0.2 38 5.8 NNE 17 30 9 16 1022.8 1022.8 0.2
20/12:30pm 13.2 7.5 -0.8 38 5.7 NE 19 24 10 13 1023.6 1023.6 0.2
20/12:00pm 13.1 7.3 -0.2 40 5.5 NE 20 30 11 16 1024.5 1024.5 0.2
20/11:30am 12.9 7.7 0.3 42 5.3 NNE 17 26 9 14 1025.2 1025.2 0.0
20/11:00am 12.4 6.9 0.8 45 4.8 NNE 19 26 10 14 1026.1 1026.1 0.0
20/10:30am 11.7 7.2 1.9 51 4.2 NE 15 20 8 11 1026.3 1026.4 0.0
20/10:00am 10.8 6.3 2.1 55 3.7 NE 15 19 8 10 1026.7 1026.8 0.0
20/09:30am 9.3 5.3 3.1 65 2.7 NE 13 17 7 9 1027.1 1027.2 0.0
20/09:00am 7.0 3.9 3.6 79 1.4 ENE 9 15 5 8 1027.4 1027.5 0.0
20/08:30am 4.0 1.3 2.7 91 0.5 SE 6 7 3 4 1027.5 1027.6 0.0
20/08:00am 0.5 -2.6 0.1 97 0.1 S 6 6 3 3 1027.7 1027.8 0.0
20/07:30am -1.4 -4.4 -1.8 97 0.1 S 4 7 2 4 1027.3 1027.4 0.0
20/07:00am -0.9 -3.1 -1.3 97 0.1 CALM 0 0 0 0 1027.0 1027.1 0.0
20/06:30am -1.2 -4.5 -1.6 97 0.1 E 6 6 3 3 1026.8 1026.9 0.0
20/06:00am -1.3 -4.3 -1.9 96 0.1 SSE 4 7 2 4 1026.8 1026.9 0.0
20/05:30am -1.6 -3.9 -2.2 96 0.1 CALM 0 0 0 0 1027.0 1027.1 0.0
20/05:00am -1.3 -3.5 -1.9 96 0.1 CALM 0 0 0 0 1027.0 1027.1 0.0
20/04:30am -0.7 -2.9 -1.3 96 0.2 CALM 0 0 0 0 1027.0 1027.1 0.0
20/04:00am -0.4 -3.7 -1.1 95 0.2 SE 6 6 3 3 1026.8 1026.9 0.0
20/03:30am -0.1 -3.3 -0.8 95 0.2 S 6 6 3 3 1026.9 1027.0 0.0
20/03:00am -0.1 -3.4 -0.9 94 0.3 S 6 6 3 3 1026.9 1027.0 0.0
20/02:30am 0.4 -1.7 -0.6 93 0.4 CALM 0 0 0 0 1027.3 1027.4 0.0
20/02:00am 0.9 -1.1 -0.4 91 0.5 CALM 0 0 0 0 1027.2 1027.3 0.0
20/01:30am 1.0 -1.1 -0.6 89 0.6 CALM 0 0 0 0 1027.2 1027.3 0.0
20/01:00am 1.4 -1.7 -0.1 90 0.5 S 6 7 3 4 1027.4 1027.5 0.0
20/12:30am 1.7 -1.4 0.4 91 0.5 SE 6 7 3 4 1027.5 1027.6 0.0
20/12:00am 1.9 -1.4 0.1 88 0.7 S 7 9 4 5 1027.9 1028.0 0.0
 
Date/Time
EST
Temp
°C
App
Temp
°C
Dew
Point
°C
Rel
Hum
%
Delta-T
°C
Wind Press
QNH
hPa
Press
MSL
hPa
Rain since
9am
mm
Dir  Spd
km/h
Gust
km/h
Spd
kts
Gust
kts
19/11:30pm 2.5 0.5 -0.1 83 1.0 CALM 0 0 0 0 1028.3 1028.4 0.0
19/11:00pm 3.3 1.4 0.5 82 1.1 CALM 0 0 0 0 1028.4 1028.5 0.0
19/10:30pm 3.7 1.8 0.4 79 1.3 CALM 0 6 0 3 1028.5 1028.6 0.0
19/10:00pm 4.4 1.7 0.6 76 1.4 SE 4 6 2 3 1028.4 1028.5 0.0
19/09:30pm 4.9 1.9 0.7 74 1.6 SE 6 6 3 3 1028.5 1028.6 0.0
19/09:00pm 5.5 2.3 0.7 71 1.9 SE 7 9 4 5 1028.5 1028.6 0.0
19/08:30pm 6.2 3.0 0.5 67 2.2 SSE 7 9 4 5 1028.3 1028.4 0.0
19/08:00pm 7.2 3.6 0.9 64 2.5 SSE 9 11 5 6 1028.2 1028.3 0.0
19/07:30pm 7.6 4.0 0.8 62 2.7 SE 9 11 5 6 1027.8 1027.9 0.0
19/07:00pm 8.3 4.7 0.5 58 3.1 SSE 9 11 5 6 1027.8 1027.9 0.0
19/06:30pm 10.0 6.4 0.3 51 3.9 SSE 9 11 5 6 1027.5 1027.6 0.0
19/06:00pm 11.4 7.4 0.2 46 4.6 SSE 11 15 6 8 1027.4 1027.5 0.0
19/05:30pm 12.2 7.3 -0.3 42 5.1 SSE 15 22 8 12 1027.3 1027.4 0.0
19/05:00pm 13.3 8.3 -1.1 37 5.8 SSE 15 28 8 15 1027.1 1027.2 0.0
19/04:30pm 13.6 8.4 -0.1 39 5.7 SSE 17 26 9 14 1026.9 1027.0 0.0
19/04:00pm 12.8 8.5 1.2 45 4.9 S 13 20 7 11 1027.0 1027.1 0.0
19/03:30pm 13.2 8.5 0.6 42 5.3 S 15 24 8 13 1027.2 1027.3 0.0
19/03:00pm 14.0 9.0 1.3 42 5.4 SSE 17 28 9 15 1027.3 1027.4 0.0
19/02:30pm 14.3 10.0 0.9 40 5.7 SSW 13 24 7 13 1027.5 1027.6 0.0
19/02:00pm 13.7 9.0 0.7 41 5.5 S 15 28 8 15 1027.8 1027.9 0.0
19/01:30pm 13.4 8.5 2.0 46 5.0 S 17 30 9 16 1027.9 1028.0 0.0
19/01:00pm 12.9 8.0 1.9 47 4.7 S 17 28 9 15 1028.2 1028.3 0.0
19/12:30pm 12.4 8.0 2.6 51 4.3 SSE 15 22 8 12 1028.7 1028.8 0.0
19/12:00pm 12.2 7.3 2.1 50 4.3 S 17 28 9 15 1029.1 1029.2 0.0
19/11:30am 11.9 7.2 3.2 55 3.8 S 17 24 9 13 1029.3 1029.4 0.0
19/11:00am 11.9 7.8 4.2 59 3.4 SSW 15 22 8 12 1029.5 1029.6 0.0
19/10:30am 10.9 6.9 4.8 66 2.8 S 15 20 8 11 1029.6 1029.7 0.0
19/10:00am 10.1 6.4 4.7 69 2.4 S 13 19 7 10 1029.5 1029.6 0.0
19/09:30am 8.9 5.4 5.5 79 1.5 SSW 13 17 7 9 1029.3 1029.4 0.0
19/09:00am 7.5 4.3 5.0 84 1.1 SSW 11 17 6 9 1029.1 1029.2 0.0
19/08:30am 6.0 3.1 4.8 92 0.5 SSW 9 13 5 7 1028.8 1028.9 0.0
19/08:00am 4.1 1.0 3.8 98 0.1 WSW 9 11 5 6 1028.3 1028.4 0.0
19/07:30am 2.8 -0.1 2.5 98 0.1 SW 7 9 4 5 1027.8 1027.9 0.0
19/07:00am 2.6 -0.4 2.2 97 0.2 SW 7 9 4 5 1027.3 1027.4 0.0
19/06:30am 3.1 0.2 2.7 97 0.2 SW 7 11 4 6 1026.8 1026.9 0.0
19/06:00am 3.4 0.2 2.8 96 0.2 SW 9 11 5 6 1026.4 1026.5 0.0
19/05:30am 3.8 0.2 3.2 96 0.2 SW 11 15 6 8 1026.1 1026.1 0.0
19/05:00am 4.0 0.1 3.3 95 0.3 SW 13 17 7 9 1025.8 1025.8 0.0
19/04:30am 4.1 1.0 3.4 95 0.3 SW 9 13 5 7 1025.6 1025.6 0.0
19/04:00am 4.3 0.8 3.6 95 0.3 WSW 11 17 6 9 1025.5 1025.5 0.0
19/03:30am 4.3 0.8 3.3 93 0.4 WSW 11 17 6 9 1025.4 1025.4 0.0
19/03:00am 5.0 1.6 3.8 92 0.5 WSW 11 17 6 9 1025.5 1025.5 0.0
19/02:30am 5.2 1.4 3.9 91 0.5 WSW 13 19 7 10 1025.4 1025.4 0.0
19/02:00am 4.9 1.4 3.7 92 0.5 WSW 11 17 6 9 1025.5 1025.5 0.0
19/01:30am 4.3 1.1 3.1 92 0.5 W 9 15 5 8 1025.5 1025.5 0.0
19/01:00am 4.5 1.3 3.2 91 0.5 W 9 13 5 7 1025.5 1025.5 0.0
19/12:30am 4.8 1.6 3.1 89 0.7 W 9 13 5 7 1025.4 1025.4 0.0
19/12:00am 5.5 2.3 3.3 86 0.9 W 9 15 5 8 1025.3 1025.3 0.0
 
Date/Time
EST
Temp
°C
App
Temp
°C
Dew
Point
°C
Rel
Hum
%
Delta-T
°C
Wind Press
QNH
hPa
Press
MSL
hPa
Rain since
9am
mm
Dir  Spd
km/h
Gust
km/h
Spd
kts
Gust
kts
18/11:30pm 5.6 2.1 3.4 86 0.9 WSW 11 15 6 8 1025.4 1025.4 0.0
18/11:00pm 5.8 2.3 3.5 85 1.0 WSW 11 17 6 9 1025.4 1025.4 0.0
18/10:30pm 5.5 2.3 3.3 86 0.9 W 9 11 5 6 1025.3 1025.3 0.0
18/10:00pm 5.5 2.7 3.0 84 1.0 W 7 9 4 5 1025.4 1025.4 0.0
18/09:30pm 5.9 3.1 3.1 82 1.2 W 7 11 4 6 1025.1 1025.1 0.0
18/09:00pm 6.5 3.3 3.1 79 1.4 WNW 9 13 5 7 1024.8 1024.8 0.0
18/08:30pm 7.4 4.6 3.3 75 1.7 W 7 11 4 6 1024.6 1024.6 0.0
18/08:00pm 9.2 5.7 3.6 68 2.4 WSW 11 17 6 9 1024.3 1024.3 0.0
18/07:30pm 10.0 5.4 3.7 65 2.8 SW 17 24 9 13 1023.8 1023.8 0.0
18/07:00pm 9.9 6.2 4.7 70 2.3 WSW 13 20 7 11 1023.5 1023.5 0.0
18/06:30pm 10.5 6.4 4.4 66 2.7 WSW 15 22 8 12 1023.0 1023.0 0.0
18/06:00pm 11.4 6.4 3.7 59 3.4 WSW 19 35 10 19 1022.6 1022.6 0.0
18/05:30pm 12.3 6.6 3.0 53 4.1 WSW 22 41 12 22 1022.3 1022.3 0.0
18/05:00pm 12.6 7.7 4.1 56 3.8 SSW 19 32 10 17 1021.7 1021.7 0.0
18/04:30pm 13.9 8.7 3.7 50 4.6 WSW 20 39 11 21 1021.1 1021.1 0.0
18/04:00pm 14.3 8.3 3.5 48 4.9 SW 24 41 13 22 1020.8 1020.8 0.0
18/03:54pm 14.3 7.6 3.7 49 4.8 SW 28 46 15 25 1020.7 1020.7 0.0
18/03:30pm 14.3 8.0 3.5 48 4.9 SW 26 43 14 23 1020.5 1020.5 0.0
18/03:00pm 13.0 6.6 5.4 60 3.5 SW 28 43 15 23 1020.4 1020.4 0.0
18/02:40pm 12.3 5.7 4.3 58 3.6 SW 28 48 15 26 1020.4 1020.4 0.0
18/02:30pm 14.9 9.0 3.7 47 5.1 SW 24 41 13 22 1020.2 1020.2 0.0
18/02:00pm 13.1 6.7 5.3 59 3.6 SW 28 46 15 25 1020.1 1020.1 0.0
18/01:59pm 12.7 6.3 5.1 60 3.5 SW 28 46 15 25 1020.1 1020.1 0.0
18/01:30pm 13.8 8.6 3.6 50 4.6 SW 20 33 11 18 1019.8 1019.8 0.0
18/01:19pm 14.5 7.4 1.4 41 5.7 WSW 28 46 15 25 1019.7 1019.7 0.0
18/01:00pm 14.2 7.2 2.1 44 5.3 WSW 28 41 15 22 1020.0 1020.0 0.0
18/12:30pm 13.6 8.0 3.4 50 4.6 WSW 22 39 12 21 1020.2 1020.2 0.0
18/12:00pm 13.2 7.6 3.6 52 4.3 WSW 22 35 12 19 1020.5 1020.5 0.0
18/11:30am 13.0 7.2 4.2 55 4.0 WSW 24 37 13 20 1020.5 1020.5 0.0
18/11:01am 12.3 5.7 4.3 58 3.6 WSW 28 46 15 25 1020.6 1020.6 0.0
18/11:00am 12.4 5.4 4.1 57 3.7 WSW 30 46 16 25 1020.6 1020.6 0.0
18/10:53am 12.1 5.5 4.1 58 3.6 WSW 28 46 15 25 1020.5 1020.5 0.0
18/10:30am 12.1 6.4 5.0 62 3.3 WSW 24 44 13 24 1020.4 1020.4 0.0
18/10:00am 11.5 5.1 5.2 65 2.9 WSW 28 43 15 23 1020.1 1020.1 0.0
18/09:30am 10.6 4.5 4.9 68 2.6 W 26 39 14 21 1019.9 1019.9 0.0
18/09:00am 9.8 4.8 4.8 71 2.2 W 20 32 11 17 1019.5 1019.5 0.6
18/08:30am 8.8 4.0 4.8 76 1.8 W 19 33 10 18 1019.1 1019.1 0.6
18/08:00am 7.7 2.9 4.5 80 1.4 W 19 30 10 16 1018.4 1018.4 0.6
18/07:30am 6.9 2.8 4.2 83 1.2 W 15 22 8 12 1018.0 1018.0 0.6
18/07:00am 6.7 2.5 4.0 83 1.2 WNW 15 22 8 12 1017.4 1017.5 0.6
18/06:30am 7.0 2.5 4.3 83 1.2 W 17 26 9 14 1016.9 1017.0 0.6
18/06:00am 7.1 2.3 4.4 83 1.2 W 19 26 10 14 1016.5 1016.6 0.6
18/05:30am 7.2 2.8 4.5 83 1.2 WNW 17 24 9 13 1016.1 1016.2 0.6
18/05:00am 7.2 2.8 4.5 83 1.2 W 17 24 9 13 1015.8 1015.9 0.6
18/04:30am 7.8 2.8 4.6 80 1.4 W 20 30 11 16 1015.5 1015.6 0.6
18/04:00am 7.7 2.9 4.5 80 1.4 W 19 28 10 15 1015.1 1015.2 0.6
18/03:30am 8.0 3.0 4.6 79 1.5 W 20 32 11 17 1014.9 1015.0 0.6
18/03:00am 8.5 3.5 4.7 77 1.7 WNW 20 30 11 16 1014.7 1014.8 0.6
18/02:30am 8.6 3.6 4.6 76 1.8 W 20 35 11 19 1014.6 1014.7 0.6
18/02:00am 8.8 3.8 4.6 75 1.9 WNW 20 32 11 17 1014.4 1014.5 0.6
18/01:30am 9.0 3.6 4.4 73 2.0 W 22 37 12 20 1014.3 1014.4 0.6
18/01:00am 9.4 4.1 5.0 74 2.0 WNW 22 35 12 19 1014.2 1014.3 0.6
18/12:30am 9.6 4.8 5.6 76 1.8 WNW 20 32 11 17 1013.9 1014.0 0.6
18/12:00am 10.0 5.2 5.8 75 1.9 WNW 20 32 11 17 1013.8 1013.9 0.6
 
Date/Time
EST
Temp
°C
App
Temp
°C
Dew
Point
°C
Rel
Hum
%
Delta-T
°C
Wind Press
QNH
hPa
Press
MSL
hPa
Rain since
9am
mm
Dir  Spd
km/h
Gust
km/h
Spd
kts
Gust
kts
17/11:30pm 10.0 4.9 5.8 75 1.9 WNW 22 33 12 18 1013.7 1013.8 0.6
17/11:00pm 10.0 4.9 5.8 75 1.9 WNW 22 35 12 19 1013.4 1013.5 0.6
17/10:30pm 10.0 4.9 6.0 76 1.8 WNW 22 35 12 19 1013.3 1013.4 0.6
17/10:00pm 10.1 5.1 6.6 79 1.6 WNW 22 32 12 17 1013.0 1013.1 0.6
17/09:30pm 10.1 5.8 7.0 81 1.5 WNW 19 30 10 16 1013.0 1013.1 0.6
17/09:00pm 10.4 6.0 7.5 82 1.4 WNW 20 33 11 18 1012.9 1013.0 0.6
17/08:30pm 10.0 4.2 7.8 86 1.1 W 28 44 15 24 1012.7 1012.8 0.6
17/08:07pm 11.5 5.0 6.4 71 2.4 W 30 48 16 26 1012.6 1012.7 0.2
17/08:00pm 11.4 5.6 6.3 71 2.4 W 26 44 14 24 1012.0 1012.1 0.2

Other Formats:

Comma delimited format used in spreadsheet applications
http://www.bom.gov.au/fwo/IDV60801/IDV60801.94693.axf

JavaScript Object Notation format (JSON) in row-major order
http://www.bom.gov.au/fwo/IDV60801/IDV60801.94693.json